Time;durP1;ratioP1;P1;durP2;ratioP2;P2;SDS_P1;SDS_P2;PMS_P1;PMS_P2;Temp;Humidity;BMP_temperature;BMP_pressure;BME280_temperature;BME280_humidity;BME280_pressure;Samples;Min_cycle;Max_cycle;Signal;HPM_P1;HPM_P2
2021/05/19 00:00:01;;;;;;;2.90;2.80;;;;;;;5.69;100.00;97825.19;5017501;28;20219;-71
2021/05/19 00:02:28;;;;;;;2.70;2.60;;;;;;;5.70;100.00;97830.31;5013827;28;20248;-71
2021/05/19 00:04:55;;;;;;;3.03;2.90;;;;;;;5.67;100.00;97825.31;5003474;28;20289;-71
2021/05/19 00:07:23;;;;;;;3.23;3.07;;;;;;;5.68;100.00;97821.72;5014056;28;20200;-71
2021/05/19 00:09:50;;;;;;;3.03;2.83;;;;;;;5.68;100.00;97828.78;5015203;28;20205;-71
2021/05/19 00:12:19;;;;;;;3.30;3.10;;;;;;;5.59;100.00;97840.97;5013802;28;20781;-69
2021/05/19 00:14:47;;;;;;;3.27;3.03;;;;;;;5.60;100.00;97843.44;5008701;28;20201;-70
2021/05/19 00:17:15;;;;;;;3.97;3.10;;;;;;;5.61;100.00;97852.16;5006897;28;20239;-71
2021/05/19 00:19:42;;;;;;;2.93;2.70;;;;;;;5.60;100.00;97847.88;5008344;28;20204;-72
2021/05/19 00:22:10;;;;;;;3.17;2.97;;;;;;;5.59;100.00;97854.91;5017653;28;20672;-71
2021/05/19 00:24:37;;;;;;;3.80;3.10;;;;;;;5.59;100.00;97856.72;5003873;28;20209;-71
2021/05/19 00:27:05;;;;;;;2.40;2.30;;;;;;;5.63;100.00;97851.03;5012650;28;20204;-71
2021/05/19 00:29:34;;;;;;;3.30;2.83;;;;;;;5.60;100.00;97851.31;5006640;28;20217;-71
2021/05/19 00:32:01;;;;;;;3.10;2.90;;;;;;;5.54;100.00;97861.56;5016881;28;20250;-71
2021/05/19 00:34:28;;;;;;;2.80;2.70;;;;;;;5.46;100.00;97857.78;5008176;28;20221;-71
2021/05/19 00:36:56;;;;;;;3.53;2.63;;;;;;;5.51;100.00;97860.03;5008857;28;20726;-71
2021/05/19 00:39:23;;;;;;;3.20;3.00;;;;;;;5.54;100.00;97865.00;5020137;28;20380;-71
2021/05/19 00:41:51;;;;;;;3.30;3.10;;;;;;;5.58;100.00;97865.59;5012391;28;20244;-71
2021/05/19 00:44:18;;;;;;;3.30;3.00;;;;;;;5.45;100.00;97857.94;5002411;28;20213;-71
2021/05/19 00:46:47;;;;;;;3.53;3.27;;;;;;;5.49;100.00;97868.06;5005133;28;20596;-71
2021/05/19 00:49:15;;;;;;;3.53;3.33;;;;;;;5.42;100.00;97869.53;5012811;28;20209;-69
2021/05/19 00:51:43;;;;;;;3.10;2.90;;;;;;;5.54;100.00;97867.63;5002725;28;20221;-71
2021/05/19 00:54:11;;;;;;;3.70;3.40;;;;;;;5.57;100.00;97867.38;5005770;28;20205;-71
2021/05/19 00:56:39;;;;;;;4.00;3.70;;;;;;;5.52;100.00;97877.47;5008109;28;20217;-69
2021/05/19 00:59:07;;;;;;;3.87;3.37;;;;;;;5.50;100.00;97874.97;5008848;28;20224;-71
2021/05/19 01:01:36;;;;;;;3.37;3.20;;;;;;;5.45;100.00;97871.09;5006790;28;20600;-71
2021/05/19 01:04:05;;;;;;;3.13;3.00;;;;;;;5.45;100.00;97873.72;5004445;28;20673;-71
2021/05/19 01:06:38;;;;;;;3.60;3.40;;;;;;;5.45;100.00;97868.47;5011558;28;20205;-70
2021/05/19 01:11:51;;;;;;;3.23;3.03;;;;;;;5.45;100.00;97868.47;5017104;28;20517;-71
2021/05/19 01:14:19;;;;;;;2.90;2.80;;;;;;;5.37;100.00;97866.50;5013021;28;20569;-71
2021/05/19 01:16:47;;;;;;;3.57;3.37;;;;;;;5.39;100.00;97869.81;5003639;28;20229;-70
2021/05/19 01:19:19;;;;;;;3.33;3.13;;;;;;;5.39;100.00;97864.56;5018346;28;20200;-69
2021/05/19 01:21:48;;;;;;;3.70;3.50;;;;;;;5.28;100.00;97867.28;5008147;28;20239;-71
2021/05/19 01:24:17;;;;;;;3.00;2.90;;;;;;;5.19;100.00;97864.50;5013971;28;20647;-71
2021/05/19 01:26:44;;;;;;;3.30;3.20;;;;;;;5.12;100.00;97866.00;5004533;28;20204;-71
2021/05/19 01:29:11;;;;;;;3.20;3.10;;;;;;;5.04;100.00;97865.81;5006055;28;20665;-72
2021/05/19 01:31:40;;;;;;;3.93;3.40;;;;;;;5.04;100.00;97868.44;5011353;28;20416;-71
2021/05/19 01:34:08;;;;;;;4.63;3.47;;;;;;;5.02;100.00;97873.84;5005441;28;20212;-70
2021/05/19 01:36:35;;;;;;;3.70;3.50;;;;;;;5.15;100.00;97868.38;5004003;28;20864;-71
2021/05/19 01:39:03;;;;;;;4.10;3.70;;;;;;;5.05;100.00;97875.34;5003869;28;20209;-70
2021/05/19 01:41:32;;;;;;;3.93;3.57;;;;;;;4.98;100.00;97879.47;5015928;28;20247;-71
2021/05/19 01:44:08;;;;;;;3.93;3.73;;;;;;;4.97;100.00;97876.03;5005494;28;20211;-71
2021/05/19 01:46:36;;;;;;;6.77;4.27;;;;;;;4.92;100.00;97872.94;5012203;28;20204;-71
2021/05/19 01:49:06;;;;;;;3.70;3.40;;;;;;;4.98;100.00;97880.31;5003470;28;20209;-70
2021/05/19 01:51:35;;;;;;;3.40;3.20;;;;;;;4.97;100.00;97883.06;5008352;28;20240;-70
2021/05/19 01:54:04;;;;;;;3.70;3.50;;;;;;;5.06;100.00;97880.50;5011338;28;20294;-70
2021/05/19 01:56:34;;;;;;;4.07;3.83;;;;;;;4.99;100.00;97876.72;5012964;28;20228;-71
2021/05/19 01:59:03;;;;;;;3.63;3.43;;;;;;;4.96;100.00;97884.88;5004298;28;20208;-72
2021/05/19 02:01:30;;;;;;;3.63;3.43;;;;;;;4.93;100.00;97885.97;5010390;28;20229;-70
2021/05/19 02:04:05;;;;;;;3.57;3.37;;;;;;;4.95;100.00;97885.84;5013903;28;20209;-70
2021/05/19 02:06:46;;;;;;;3.30;3.10;;;;;;;5.00;100.00;97882.81;5004741;28;20200;-71
2021/05/19 02:09:16;;;;;;;3.77;3.57;;;;;;;4.96;100.00;97889.28;5010304;28;20204;-69
2021/05/19 02:11:45;;;;;;;3.60;3.40;;;;;;;4.82;100.00;97888.69;5013928;28;20220;-71
2021/05/19 02:14:13;;;;;;;4.07;3.77;;;;;;;4.69;100.00;97885.41;5003195;28;20205;-69
2021/05/19 02:16:40;;;;;;;4.07;3.80;;;;;;;4.68;100.00;97875.88;5002762;28;20228;-70
2021/05/19 02:19:09;;;;;;;4.20;3.93;;;;;;;4.62;100.00;97879.84;5003838;28;20216;-70
2021/05/19 02:21:39;;;;;;;4.03;3.63;;;;;;;4.62;100.00;97893.81;5011530;28;20668;-72
2021/05/19 02:24:08;;;;;;;3.60;3.40;;;;;;;4.57;100.00;97888.09;5003896;28;20652;-71
2021/05/19 02:26:36;;;;;;;4.13;3.80;;;;;;;4.50;100.00;97892.22;5002639;28;20199;-71
2021/05/19 02:29:04;;;;;;;4.07;3.87;;;;;;;4.42;100.00;97884.97;5005742;28;20208;-70
2021/05/19 02:31:32;;;;;;;4.10;3.70;;;;;;;4.33;100.00;97886.56;5009891;28;20972;-71
2021/05/19 02:33:59;;;;;;;4.40;3.93;;;;;;;4.35;100.00;97883.81;5010633;28;20212;-71
2021/05/19 02:36:27;;;;;;;3.97;3.67;;;;;;;4.34;100.00;97879.53;5012754;28;20232;-70
2021/05/19 02:38:55;;;;;;;4.47;4.17;;;;;;;4.31;100.00;97883.22;5008692;28;20217;-71
2021/05/19 02:41:22;;;;;;;4.37;4.07;;;;;;;4.26;100.00;97877.53;5003568;28;20225;-71
2021/05/19 02:43:51;;;;;;;4.20;4.00;;;;;;;4.31;100.00;97887.66;5001459;28;20201;-70
2021/05/19 02:46:19;;;;;;;4.30;4.10;;;;;;;4.59;100.00;97877.50;5004944;28;20219;-70
2021/05/19 02:48:47;;;;;;;4.43;4.03;;;;;;;4.46;100.00;97886.38;4999225;28;20208;-69
2021/05/19 02:51:17;;;;;;;4.63;4.23;;;;;;;4.47;100.00;97888.03;5005510;28;20534;-68
2021/05/19 02:53:45;;;;;;;4.97;4.57;;;;;;;4.57;100.00;97884.66;5002470;28;20689;-68
2021/05/19 02:56:12;;;;;;;5.07;4.70;;;;;;;4.42;100.00;97892.03;5005188;28;20228;-69
2021/05/19 02:58:39;;;;;;;5.63;5.13;;;;;;;4.46;100.00;97891.63;5004104;28;20236;-70
2021/05/19 03:01:07;;;;;;;5.57;5.13;;;;;;;4.35;100.00;97887.25;5002239;28;20712;-69
2021/05/19 03:03:35;;;;;;;5.50;5.10;;;;;;;4.20;100.00;97892.00;5005167;28;20610;-70
2021/05/19 03:06:03;;;;;;;5.17;4.87;;;;;;;4.15;100.00;97896.78;5003027;28;20215;-70
2021/05/19 03:08:30;;;;;;;4.83;4.53;;;;;;;4.15;100.00;97896.78;5001629;28;20702;-70
2021/05/19 03:10:58;;;;;;;5.13;4.83;;;;;;;4.07;100.00;97893.94;5003649;28;20208;-69
2021/05/19 03:13:25;;;;;;;5.23;4.93;;;;;;;4.13;100.00;97897.88;5003473;28;20209;-70
2021/05/19 03:15:53;;;;;;;4.67;4.37;;;;;;;4.02;100.00;97898.75;5012097;28;20208;-70
2021/05/19 03:18:20;;;;;;;4.63;4.33;;;;;;;3.88;100.00;97903.31;5006488;28;20209;-70
2021/05/19 03:20:49;;;;;;;4.87;4.53;;;;;;;3.87;100.00;97904.28;5007142;28;20575;-67
2021/05/19 03:23:17;;;;;;;4.80;4.50;;;;;;;4.01;100.00;97907.56;5000759;28;20217;-70
2021/05/19 03:25:45;;;;;;;5.17;4.80;;;;;;;3.90;100.00;97914.53;5002867;28;20704;-70
2021/05/19 03:28:16;;;;;;;5.30;4.93;;;;;;;3.77;100.00;97913.81;5009365;28;20629;-71
2021/05/19 03:30:44;;;;;;;4.57;4.37;;;;;;;3.73;100.00;97917.66;5008643;28;20204;-70
2021/05/19 03:33:12;;;;;;;5.93;5.03;;;;;;;3.76;100.00;97918.25;5007343;28;20401;-70
2021/05/19 03:35:39;;;;;;;6.07;5.60;;;;;;;3.74;100.00;97927.16;5010252;28;20205;-69
2021/05/19 03:38:08;;;;;;;5.73;5.13;;;;;;;3.73;100.00;97928.97;5010689;28;20232;-71
2021/05/19 03:40:35;;;;;;;5.77;5.37;;;;;;;3.79;100.00;97927.66;5008164;28;20605;-70
2021/05/19 03:43:04;;;;;;;5.63;5.20;;;;;;;3.84;100.00;97933.38;5009136;28;20231;-71
2021/05/19 03:45:31;;;;;;;5.90;5.50;;;;;;;3.78;100.00;97933.84;5009473;28;20251;-70
2021/05/19 03:47:59;;;;;;;5.90;5.50;;;;;;;3.81;100.00;97933.63;5006258;28;20356;-70
2021/05/19 03:50:29;;;;;;;6.67;5.57;;;;;;;3.80;100.00;97933.72;5016179;28;20675;-70
2021/05/19 03:52:58;;;;;;;6.50;6.00;;;;;;;3.81;100.00;97932.75;5005621;28;20228;-69
2021/05/19 03:55:27;;;;;;;7.03;6.43;;;;;;;3.90;100.00;97932.03;5012651;28;20691;-70
2021/05/19 03:57:54;;;;;;;6.80;6.30;;;;;;;3.95;100.00;97932.47;5007614;28;20228;-69
2021/05/19 04:00:24;;;;;;;6.83;5.93;;;;;;;4.01;100.00;97942.50;5004718;28;20564;-71
2021/05/19 04:02:52;;;;;;;7.80;7.10;;;;;;;4.06;100.00;97934.25;5009697;28;20224;-74
2021/05/19 04:05:21;;;;;;;6.40;6.00;;;;;;;4.11;100.00;97941.75;5003688;28;20205;-72
2021/05/19 04:07:49;;;;;;;6.33;5.73;;;;;;;4.26;100.00;97947.53;5011652;28;20212;-71
2021/05/19 04:10:16;;;;;;;7.03;6.43;;;;;;;4.22;100.00;97946.13;5008953;28;20204;-75
2021/05/19 04:12:47;;;;;;;7.37;6.87;;;;;;;4.33;100.00;97954.78;5020101;28;20704;-74
2021/05/19 04:15:15;;;;;;;7.80;7.20;;;;;;;4.38;100.00;97956.22;5006407;28;20228;-74
2021/05/19 04:17:42;;;;;;;7.40;6.23;;;;;;;4.46;100.00;97956.41;5015706;28;20225;-68
2021/05/19 04:20:11;;;;;;;6.70;6.10;;;;;;;4.43;100.00;97967.97;5004984;28;20205;-68
2021/05/19 04:22:39;;;;;;;6.13;5.73;;;;;;;4.49;100.00;97966.66;5005609;28;20224;-68
2021/05/19 04:25:07;;;;;;;7.43;6.83;;;;;;;4.48;100.00;97962.38;5007427;28;20212;-68
2021/05/19 04:27:35;;;;;;;7.00;6.50;;;;;;;4.58;100.00;97967.69;5011394;28;20205;-68
2021/05/19 04:30:05;;;;;;;7.50;7.00;;;;;;;4.60;100.00;97966.59;5009290;28;20209;-68
2021/05/19 04:32:32;;;;;;;7.73;7.17;;;;;;;4.73;100.00;97973.44;5009082;28;20259;-68
2021/05/19 04:35:00;;;;;;;7.30;6.80;;;;;;;4.81;100.00;97976.28;5012824;28;20213;-68
2021/05/19 04:37:27;;;;;;;7.87;7.27;;;;;;;4.88;100.00;97973.97;5003149;28;20229;-68
2021/05/19 04:39:55;;;;;;;7.90;7.30;;;;;;;4.89;100.00;97979.09;5003819;28;20205;-69
2021/05/19 04:42:22;;;;;;;7.83;7.23;;;;;;;4.89;100.00;97973.00;5004267;28;20233;-69
2021/05/19 04:44:50;;;;;;;8.63;7.83;;;;;;;4.95;100.00;97980.38;5013363;28;20204;-68
2021/05/19 04:47:18;;;;;;;8.23;7.63;;;;;;;5.00;100.00;97982.59;5004625;28;20208;-69
2021/05/19 04:49:46;;;;;;;8.73;8.03;;;;;;;5.16;100.00;97985.63;5006477;28;20215;-68
2021/05/19 04:52:13;;;;;;;8.30;7.60;;;;;;;5.27;100.00;97981.25;5004363;28;20627;-68
2021/05/19 04:54:41;;;;;;;8.40;7.70;;;;;;;5.41;100.00;97994.03;5013553;28;20220;-68
2021/05/19 04:57:08;;;;;;;9.13;8.50;;;;;;;5.50;100.00;97990.63;5007610;28;20239;-68
2021/05/19 04:59:36;;;;;;;8.80;8.07;;;;;;;5.52;100.00;97992.31;5010779;28;20212;-69
2021/05/19 05:02:05;;;;;;;8.27;7.67;;;;;;;5.61;100.00;98000.22;5005852;28;20319;-69
2021/05/19 05:04:34;;;;;;;9.37;8.30;;;;;;;5.71;100.00;98004.69;5009918;28;20689;-68
2021/05/19 05:07:01;;;;;;;9.37;8.60;;;;;;;5.92;100.00;98005.44;5013744;28;20207;-68
2021/05/19 05:09:29;;;;;;;10.67;9.67;;;;;;;6.04;100.00;97997.47;5004459;28;20810;-67
2021/05/19 05:11:56;;;;;;;9.93;9.13;;;;;;;6.04;100.00;97995.69;5003426;28;20790;-68
2021/05/19 05:14:24;;;;;;;11.67;10.57;;;;;;;6.13;100.00;98001.09;5005124;28;20208;-68
2021/05/19 05:16:51;;;;;;;11.70;10.50;;;;;;;6.28;100.00;98005.00;5006950;28;20229;-68
2021/05/19 05:19:19;;;;;;;10.73;9.90;;;;;;;6.50;100.00;98003.06;5006781;28;20205;-68
2021/05/19 05:21:47;;;;;;;11.87;10.30;;;;;;;6.59;100.00;98007.50;5001702;28;20546;-67
2021/05/19 05:24:15;;;;;;;10.77;9.87;;;;;;;6.72;100.00;98007.22;5000536;28;20280;-68
2021/05/19 05:26:43;;;;;;;11.57;10.57;;;;;;;6.77;100.00;98012.91;5009161;28;20231;-67
2021/05/19 05:29:10;;;;;;;11.57;10.47;;;;;;;6.99;100.00;98010.97;5004122;28;20425;-68
2021/05/19 05:31:38;;;;;;;11.27;10.37;;;;;;;7.03;100.00;98007.06;5008602;28;20229;-67
2021/05/19 05:34:05;;;;;;;10.70;9.70;;;;;;;7.03;100.00;98008.88;5006888;28;20251;-68
2021/05/19 05:36:33;;;;;;;10.77;9.87;;;;;;;7.10;100.00;98013.44;5003594;28;20299;-68
2021/05/19 05:39:01;;;;;;;10.83;10.00;;;;;;;7.03;100.00;98017.63;5001278;28;20223;-72
2021/05/19 05:41:29;;;;;;;10.93;10.10;;;;;;;7.12;100.00;98020.38;5011890;28;20716;-73
2021/05/19 05:43:57;;;;;;;11.23;10.33;;;;;;;7.33;100.00;98012.28;5009809;28;20205;-73
2021/05/19 05:46:24;;;;;;;10.33;9.53;;;;;;;7.44;100.00;98019.19;5008177;28;20201;-72
2021/05/19 05:48:52;;;;;;;10.40;9.60;;;;;;;7.55;100.00;98010.28;5004742;28;20561;-76
2021/05/19 05:51:20;;;;;;;10.70;9.80;;;;;;;7.53;100.00;98015.69;5007452;28;20225;-73
2021/05/19 05:53:47;;;;;;;10.40;9.50;;;;;;;7.57;100.00;98014.41;5007666;28;20210;-75
2021/05/19 05:56:15;;;;;;;10.13;9.33;;;;;;;7.71;100.00;98018.41;5011334;28;20204;-73
2021/05/19 05:58:43;;;;;;;10.20;9.20;;;;;;;7.73;100.00;98021.72;5010493;28;20231;-73
2021/05/19 06:01:11;;;;;;;10.57;9.57;;;;;;;7.67;100.00;98014.38;5009347;28;20268;-73
2021/05/19 06:03:38;;;;;;;9.60;8.90;;;;;;;7.78;100.00;98027.41;5011734;28;20216;-74
2021/05/19 06:06:06;;;;;;;9.70;8.80;;;;;;;8.05;100.00;98030.22;5007493;28;20208;-80
2021/05/19 06:08:34;;;;;;;10.00;9.10;;;;;;;8.05;100.00;98032.84;5002074;28;20204;-70
2021/05/19 06:11:05;;;;;;;10.10;9.20;;;;;;;8.13;100.00;98029.44;5007936;28;20211;-73
2021/05/19 06:13:34;;;;;;;9.70;9.00;;;;;;;8.15;100.00;98030.16;5008408;28;20205;-71
2021/05/19 06:16:02;;;;;;;9.10;8.50;;;;;;;8.13;100.00;98032.94;5006401;28;20244;-72
2021/05/19 06:18:29;;;;;;;10.40;9.60;;;;;;;8.24;100.00;98024.81;5006981;28;20688;-74
2021/05/19 06:20:57;;;;;;;9.97;9.17;;;;;;;8.39;100.00;98033.06;5009004;28;20351;-74
2021/05/19 06:23:24;;;;;;;9.70;8.90;;;;;;;8.50;100.00;98029.41;5011187;28;20232;-73
2021/05/19 06:25:52;;;;;;;9.80;9.00;;;;;;;8.55;98.10;98031.59;5004021;28;20213;-72
2021/05/19 06:28:19;;;;;;;9.87;9.00;;;;;;;8.69;97.62;98035.50;5005342;28;20197;-73
2021/05/19 06:30:48;;;;;;;9.27;8.57;;;;;;;8.75;95.81;98037.56;5009262;28;20575;-70
2021/05/19 06:33:15;;;;;;;8.43;7.83;;;;;;;8.79;95.48;98036.28;5005215;28;20322;-73
2021/05/19 06:35:43;;;;;;;9.00;8.23;;;;;;;8.95;92.62;98040.03;5007194;28;20307;-72
2021/05/19 06:38:11;;;;;;;9.20;8.53;;;;;;;8.89;94.04;98046.75;5007182;28;21021;-69
2021/05/19 06:40:39;;;;;;;9.07;8.37;;;;;;;9.00;93.99;98040.41;5007121;28;20212;-73
2021/05/19 06:43:07;;;;;;;8.43;7.73;;;;;;;9.32;91.20;98039.00;5008235;28;20324;-71
2021/05/19 06:45:36;;;;;;;9.80;7.87;;;;;;;9.42;92.37;98041.53;5005496;28;20739;-75
2021/05/19 06:48:06;;;;;;;8.20;7.60;;;;;;;9.36;90.51;98037.69;4999446;28;20740;-72
2021/05/19 06:50:34;;;;;;;7.70;7.03;;;;;;;9.40;89.87;98044.34;5006817;28;20263;-71
2021/05/19 06:53:02;;;;;;;9.70;8.33;;;;;;;9.32;91.11;98046.13;5006366;28;20239;-72
2021/05/19 06:55:29;;;;;;;7.50;6.90;;;;;;;9.52;89.01;98047.56;5004459;28;20213;-73
2021/05/19 06:57:56;;;;;;;8.80;8.00;;;;;;;9.38;90.26;98048.13;5004522;28;20276;-74
2021/05/19 07:00:24;;;;;;;8.13;7.53;;;;;;;9.42;90.01;98054.78;5007220;28;20197;-73
2021/05/19 07:02:51;;;;;;;7.77;7.17;;;;;;;9.58;88.11;98043.47;5001635;28;20431;-71
2021/05/19 07:05:20;;;;;;;8.30;7.60;;;;;;;9.50;87.74;98040.78;5005441;28;20209;-72
2021/05/19 07:07:47;;;;;;;7.93;7.33;;;;;;;9.68;86.72;98040.72;5002185;28;20480;-74
2021/05/19 07:10:15;;;;;;;7.83;7.17;;;;;;;9.62;87.61;98039.50;5003732;28;20200;-73
2021/05/19 07:12:42;;;;;;;7.60;7.10;;;;;;;9.67;86.51;98047.00;5009378;28;20615;-73
2021/05/19 07:15:12;;;;;;;8.07;7.37;;;;;;;10.00;84.52;98044.47;5002589;28;20304;-73
2021/05/19 07:17:40;;;;;;;8.67;7.83;;;;;;;10.02;83.59;98044.34;5005170;28;20225;-72
2021/05/19 07:20:10;;;;;;;7.70;7.10;;;;;;;10.35;82.88;98047.91;5004726;28;20200;-71
2021/05/19 07:22:38;;;;;;;7.27;6.73;;;;;;;10.46;78.64;98041.53;5008651;28;20225;-75
2021/05/19 07:25:07;;;;;;;7.20;6.70;;;;;;;10.78;79.78;98041.75;5006857;28;20326;-71
2021/05/19 07:27:35;;;;;;;7.50;6.80;;;;;;;10.87;76.70;98038.13;5001117;28;20629;-73
2021/05/19 07:30:04;;;;;;;7.13;6.53;;;;;;;10.91;79.83;98036.81;5010068;28;20208;-73
2021/05/19 07:32:32;;;;;;;7.70;7.10;;;;;;;10.87;76.60;98038.13;5006999;28;20233;-71
2021/05/19 07:34:59;;;;;;;7.50;7.00;;;;;;;10.97;76.06;98041.44;5011117;28;20526;-74
2021/05/19 07:37:27;;;;;;;7.00;6.43;;;;;;;10.91;77.13;98039.44;5003691;28;20209;-72
2021/05/19 07:39:55;;;;;;;6.73;6.13;;;;;;;11.10;75.64;98043.59;5006420;28;20208;-73
2021/05/19 07:42:22;;;;;;;7.90;7.23;;;;;;;11.19;75.37;98043.59;5008652;28;20220;-70
2021/05/19 07:44:51;;;;;;;6.80;6.30;;;;;;;11.48;72.96;98031.63;5004143;28;20205;-73
2021/05/19 07:47:17;;;;;;;7.17;6.67;;;;;;;11.54;73.43;98030.94;5009555;28;20597;-73
2021/05/19 07:49:43;;;;;;;7.10;6.60;;;;;;;11.32;73.26;98035.13;5003805;28;20205;-73
2021/05/19 07:52:09;;;;;;;6.40;5.97;;;;;;;11.44;74.19;98034.63;5004868;28;20243;-70
2021/05/19 07:54:36;;;;;;;7.17;6.63;;;;;;;11.34;72.01;98038.44;5008530;28;20209;-70
2021/05/19 07:57:09;;;;;;;7.63;7.03;;;;;;;11.19;72.35;98040.94;5003183;28;20209;-73
2021/05/19 07:59:36;;;;;;;7.03;6.53;;;;;;;11.48;72.08;98034.28;5005414;28;20303;-69
2021/05/19 08:02:03;;;;;;;7.40;6.90;;;;;;;11.60;70.55;98040.06;5004155;28;20480;-72
2021/05/19 08:04:32;;;;;;;6.40;5.90;;;;;;;11.82;71.72;98027.88;5004324;28;20645;-70
2021/05/19 08:06:58;;;;;;;7.77;7.07;;;;;;;11.66;69.83;98032.22;5005244;28;20660;-72
2021/05/19 08:09:24;;;;;;;7.63;6.93;;;;;;;11.69;69.80;98029.22;5008751;28;20203;-73
2021/05/19 08:11:51;;;;;;;7.67;7.07;;;;;;;11.87;68.33;98025.53;5009601;28;20226;-73
2021/05/19 08:14:18;;;;;;;7.33;6.77;;;;;;;11.95;69.39;98030.81;5012799;28;20208;-75
2021/05/19 08:16:44;;;;;;;8.87;8.07;;;;;;;11.93;67.13;98026.66;5009114;28;20208;-73
2021/05/19 08:19:11;;;;;;;7.47;6.87;;;;;;;11.94;67.81;98020.38;5011259;28;20225;-73
2021/05/19 08:21:38;;;;;;;8.10;7.43;;;;;;;12.10;69.11;98027.44;5012598;28;20727;-73
2021/05/19 08:24:06;;;;;;;8.20;7.43;;;;;;;12.11;67.04;98021.97;5012394;28;20213;-74
2021/05/19 08:26:34;;;;;;;8.33;7.60;;;;;;;12.04;67.32;98023.69;5007734;28;20235;-71
2021/05/19 08:29:02;;;;;;;8.77;8.07;;;;;;;12.37;66.22;98022.69;5010099;28;20204;-73
2021/05/19 08:31:30;;;;;;;8.40;7.77;;;;;;;12.44;64.17;98016.50;5009658;28;20361;-73
2021/05/19 08:34:11;;;;;;;8.00;7.20;;;;;;;12.43;62.85;98027.28;5007029;28;20987;-73
2021/05/19 08:36:39;;;;;;;7.50;7.00;;;;;;;12.36;64.39;98021.03;5006945;28;20224;-73
2021/05/19 08:39:07;;;;;;;8.87;7.63;;;;;;;12.27;64.92;98023.72;5009460;28;20472;-74
2021/05/19 08:41:34;;;;;;;8.13;7.43;;;;;;;12.14;64.98;98020.81;5010856;28;20725;-72
2021/05/19 08:44:04;;;;;;;8.47;7.80;;;;;;;12.58;64.10;98024.72;5011495;28;20243;-73
2021/05/19 08:46:33;;;;;;;8.30;7.63;;;;;;;12.69;63.33;98026.97;5008447;28;20232;-72
2021/05/19 08:49:03;;;;;;;8.60;7.90;;;;;;;12.41;60.74;98021.31;5009599;28;20211;-73
2021/05/19 08:51:30;;;;;;;7.63;7.03;;;;;;;12.29;62.56;98028.84;5007654;28;20217;-74
2021/05/19 08:53:58;;;;;;;7.27;6.77;;;;;;;12.40;62.21;98028.47;5007528;28;20211;-74
2021/05/19 08:56:26;;;;;;;8.27;7.70;;;;;;;12.50;59.08;98020.28;5008924;28;20670;-74
2021/05/19 08:58:54;;;;;;;7.43;6.93;;;;;;;12.94;60.84;98024.13;5003509;28;20574;-73
2021/05/19 09:01:23;;;;;;;8.57;7.87;;;;;;;13.03;58.92;98020.38;5010709;28;20241;-72
2021/05/19 09:04:03;;;;;;;7.50;7.00;;;;;;;12.96;57.30;98019.44;5013230;28;20676;-74
2021/05/19 09:06:35;;;;;;;7.67;7.07;;;;;;;12.63;57.98;98009.06;5010023;28;20215;-72
2021/05/19 09:09:24;;;;;;;7.43;6.83;;;;;;;12.61;58.59;98018.22;5014464;28;20304;-74
2021/05/19 09:11:59;;;;;;;7.20;6.50;;;;;;;12.70;59.05;98009.19;5010726;28;20232;-74
2021/05/19 09:14:28;;;;;;;7.93;6.87;;;;;;;12.69;58.69;98011.03;5011089;28;20211;-73
2021/05/19 09:17:17;;;;;;;7.13;6.53;;;;;;;12.95;59.14;98007.16;5005728;28;20448;-72
2021/05/19 09:19:48;;;;;;;7.07;6.57;;;;;;;13.11;55.05;98002.72;5002566;28;20225;-72
2021/05/19 09:22:23;;;;;;;6.60;6.00;;;;;;;13.35;53.67;97999.00;5010746;28;20227;-74
2021/05/19 09:24:52;;;;;;;8.80;8.00;;;;;;;13.18;53.78;97998.31;5007705;28;20208;-73
2021/05/19 09:27:20;;;;;;;6.97;6.47;;;;;;;13.22;55.55;97991.63;5013753;28;20537;-74
2021/05/19 09:29:49;;;;;;;5.97;5.57;;;;;;;13.46;52.07;97997.75;5003963;28;20296;-73
2021/05/19 09:32:18;;;;;;;6.93;6.43;;;;;;;13.41;50.72;97995.59;5004244;28;20349;-73
2021/05/19 09:34:49;;;;;;;6.23;5.83;;;;;;;13.65;49.37;97990.22;5009493;28;20205;-73
2021/05/19 09:37:20;;;;;;;6.10;5.70;;;;;;;13.37;50.54;97983.66;5009910;28;20925;-75
2021/05/19 09:39:54;;;;;;;6.47;5.97;;;;;;;13.71;50.22;97978.84;5003600;28;20294;-73
2021/05/19 09:42:23;;;;;;;5.83;5.43;;;;;;;14.15;46.72;97977.94;5009651;28;20228;-74
2021/05/19 09:44:51;;;;;;;6.13;5.73;;;;;;;14.08;47.95;97985.03;5010927;28;20196;-74
2021/05/19 09:47:41;;;;;;;6.40;5.90;;;;;;;13.98;47.49;97990.66;5008541;28;20201;-73
2021/05/19 09:50:11;;;;;;;6.00;5.53;;;;;;;13.99;49.77;97981.66;5008771;28;20193;-72
2021/05/19 09:52:39;;;;;;;6.47;6.03;;;;;;;13.81;49.97;97984.69;5008224;28;20224;-73
2021/05/19 09:55:09;;;;;;;5.93;5.53;;;;;;;13.62;50.90;97980.75;5005133;28;20228;-73
2021/05/19 09:57:52;;;;;;;5.33;5.03;;;;;;;13.55;45.85;97982.50;5007305;28;20663;-72
2021/05/19 10:00:22;;;;;;;4.60;4.20;;;;;;;13.73;45.36;97977.66;5002238;28;20208;-73
2021/05/19 10:02:50;;;;;;;4.53;4.20;;;;;;;13.86;45.47;97970.84;5005073;28;20232;-74
2021/05/19 10:05:22;;;;;;;5.23;4.83;;;;;;;13.89;45.43;97965.97;5005929;28;20209;-73
2021/05/19 10:07:49;;;;;;;5.77;5.33;;;;;;;13.91;46.82;97978.28;5007862;28;20653;-70
2021/05/19 10:10:17;;;;;;;5.97;5.57;;;;;;;14.13;47.93;97963.97;5002918;28;20207;-71
2021/05/19 10:12:47;;;;;;;5.80;5.27;;;;;;;14.00;49.02;97979.81;5008791;28;20231;-73
2021/05/19 10:15:19;;;;;;;5.47;5.07;;;;;;;13.68;45.68;97961.41;5004598;28;20204;-70
2021/05/19 10:17:48;;;;;;;5.90;5.50;;;;;;;14.01;47.06;97968.97;5005734;28;20606;-71
2021/05/19 10:20:21;;;;;;;6.30;5.80;;;;;;;14.14;48.66;97962.97;5002993;28;20224;-73
2021/05/19 10:22:49;;;;;;;5.70;5.20;;;;;;;14.47;45.05;97965.16;5010223;28;20509;-73
2021/05/19 10:25:34;;;;;;;3.23;3.13;;;;;;;14.56;42.92;97965.88;5006570;28;20209;-68
2021/05/19 10:28:05;;;;;;;3.97;3.77;;;;;;;14.86;42.45;97975.59;5001470;28;20288;-67
2021/05/19 10:30:41;;;;;;;4.73;4.33;;;;;;;15.15;42.19;97963.09;5002834;28;20214;-68
2021/05/19 10:33:45;;;;;;;4.63;4.27;;;;;;;15.24;44.26;97966.47;5008923;28;20227;-72
2021/05/19 10:36:47;;;;;;;5.90;5.40;;;;;;;14.79;43.93;97974.72;5007331;28;20286;-71
2021/05/19 10:39:25;;;;;;;4.93;4.63;;;;;;;15.40;42.10;97958.13;5007380;28;20225;-70
2021/05/19 10:41:54;;;;;;;5.13;4.73;;;;;;;16.07;39.17;97949.63;5007576;28;20335;-72
2021/05/19 10:44:24;;;;;;;4.10;3.80;;;;;;;16.88;38.99;97947.94;5006250;28;20211;-73
2021/05/19 10:46:58;;;;;;;3.97;3.77;;;;;;;16.87;39.63;97958.84;5009918;28;21535;-74
2021/05/19 10:50:05;;;;;;;5.20;4.80;;;;;;;16.14;40.26;97955.00;4999317;28;20211;-74
2021/05/19 10:58:45;;;;;;;3.67;3.47;;;;;;;14.84;46.85;97977.63;5004137;28;20229;-72
2021/05/19 11:01:12;;;;;;;4.43;4.07;;;;;;;13.93;50.73;97984.25;5002122;28;20233;-71
2021/05/19 11:03:41;;;;;;;3.60;3.40;;;;;;;12.96;51.20;97992.84;5008003;28;20212;-73
2021/05/19 11:06:13;;;;;;;2.97;2.87;;;;;;;12.75;52.51;97998.84;5009224;28;20627;-73
2021/05/19 11:08:41;;;;;;;2.50;2.10;;;;;;;12.55;53.68;97996.66;5002474;28;20204;-70
2021/05/19 11:11:26;;;;;;;2.77;2.57;;;;;;;12.17;52.92;98001.88;5010653;28;20259;-73
2021/05/19 11:13:56;;;;;;;2.63;1.90;;;;;;;12.19;54.08;98010.50;5005446;28;20223;-71
2021/05/19 11:16:27;;;;;;;2.63;2.53;;;;;;;12.20;53.38;97993.56;5004225;28;20209;-72
2021/05/19 11:19:08;;;;;;;2.23;2.13;;;;;;;12.30;54.86;98004.78;5008322;28;20483;-73
2021/05/19 11:21:36;;;;;;;2.10;2.00;;;;;;;12.10;57.16;98004.38;5006739;28;20221;-71
2021/05/19 11:24:08;;;;;;;2.30;2.20;;;;;;;12.15;59.77;98006.53;5003769;28;20259;-74
2021/05/19 11:26:41;;;;;;;4.10;3.90;;;;;;;11.33;67.51;98000.44;5000790;28;20554;-71
2021/05/19 11:29:11;;;;;;;4.80;4.50;;;;;;;10.67;76.74;98003.16;5003412;28;20638;-72
2021/05/19 11:31:41;;;;;;;4.63;4.33;;;;;;;10.19;79.81;98016.09;5005064;28;20229;-71
2021/05/19 11:34:09;;;;;;;4.67;4.40;;;;;;;10.17;77.26;98004.84;5003328;28;20205;-73
2021/05/19 11:36:40;;;;;;;4.50;4.30;;;;;;;10.20;74.41;98013.28;5005368;28;20205;-73
2021/05/19 11:39:23;;;;;;;4.10;3.80;;;;;;;10.60;73.65;97997.66;5005092;28;20311;-72
2021/05/19 11:41:52;;;;;;;3.23;3.03;;;;;;;10.87;70.89;97995.72;5004915;28;20226;-71
2021/05/19 11:44:33;;;;;;;2.23;2.13;;;;;;;11.48;67.26;97999.78;5006902;28;20220;-74
2021/05/19 11:47:01;;;;;;;2.03;1.93;;;;;;;12.01;66.45;97995.63;5001726;28;20235;-73
2021/05/19 11:49:28;;;;;;;1.90;1.80;;;;;;;12.35;62.16;98000.78;5009068;28;20586;-74
2021/05/19 11:51:56;;;;;;;2.23;1.60;;;;;;;12.69;59.34;98000.41;5009729;28;20221;-73